createdAt,value
2022-10-09T00:00:05.893Z,16.13
2022-10-09T00:03:28.026Z,15.02
2022-10-09T00:06:49.903Z,14.45
2022-10-09T00:10:11.845Z,19.20
2022-10-09T00:13:33.672Z,22.58
2022-10-09T00:16:57.041Z,21.95
2022-10-09T00:20:19.105Z,21.63
2022-10-09T00:23:41.065Z,19.58
2022-10-09T00:27:02.759Z,12.65
2022-10-09T00:30:24.754Z,12.27
2022-10-09T00:33:48.650Z,12.18
2022-10-09T00:37:11.034Z,17.50
2022-10-09T00:40:33.290Z,20.83
2022-10-09T00:43:56.807Z,12.88
2022-10-09T00:47:22.453Z,16.52
2022-10-09T00:50:49.633Z,11.40
2022-10-09T00:54:15.060Z,13.13
2022-10-09T00:57:39.204Z,15.35
2022-10-09T01:01:01.168Z,22.25
2022-10-09T01:04:22.978Z,14.85
2022-10-09T01:07:51.025Z,16.20
2022-10-09T01:11:22.252Z,15.45
2022-10-09T01:14:52.616Z,17.52
2022-10-09T01:18:23.792Z,15.23
2022-10-09T01:21:54.212Z,19.55
2022-10-09T01:25:24.411Z,14.30
2022-10-09T01:28:51.780Z,20.30
2022-10-09T01:32:17.795Z,15.25
2022-10-09T01:35:41.242Z,15.13
2022-10-09T01:39:06.423Z,13.40
2022-10-09T01:42:30.661Z,11.07
2022-10-09T01:45:54.395Z,9.65
2022-10-09T01:49:28.048Z,10.80
2022-10-09T01:52:53.054Z,16.33
2022-10-09T01:56:20.249Z,17.25
2022-10-09T01:59:45.763Z,11.70
2022-10-09T02:03:14.652Z,21.40
2022-10-09T02:06:40.306Z,17.00
2022-10-09T02:10:04.507Z,15.40
2022-10-09T02:13:26.286Z,11.10
2022-10-09T02:16:53.839Z,10.40
2022-10-09T02:20:22.856Z,14.73
2022-10-09T02:23:47.600Z,8.65
2022-10-09T02:27:10.750Z,12.27
2022-10-09T02:30:46.312Z,22.42
2022-10-09T02:34:10.820Z,12.90
2022-10-09T02:37:34.193Z,11.38
2022-10-09T02:40:59.009Z,11.52
2022-10-09T02:44:20.902Z,6.25
2022-10-09T02:47:42.624Z,12.10
2022-10-09T02:51:04.470Z,10.93
2022-10-09T02:54:27.570Z,11.98
2022-10-09T02:57:49.651Z,11.77
2022-10-09T03:01:11.851Z,9.88
2022-10-09T03:04:33.658Z,9.20
2022-10-09T03:07:55.452Z,12.02
2022-10-09T03:11:20.390Z,15.05
2022-10-09T03:14:42.370Z,11.10
2022-10-09T03:18:04.590Z,12.93
2022-10-09T03:21:28.435Z,13.40
2022-10-09T03:24:50.439Z,12.68
2022-10-09T03:28:13.832Z,13.20
2022-10-09T03:31:53.136Z,12.57
2022-10-09T03:35:15.761Z,13.55
2022-10-09T03:38:37.865Z,22.75
2022-10-09T03:42:00.215Z,12.50
2022-10-09T03:45:23.552Z,15.57
2022-10-09T03:48:45.815Z,9.57
2022-10-09T03:52:07.738Z,17.45
2022-10-09T03:55:29.708Z,11.05
2022-10-09T03:58:51.718Z,7.43
2022-10-09T04:02:15.114Z,12.82
2022-10-09T04:05:37.245Z,12.48
2022-10-09T04:08:59.041Z,10.63
2022-10-09T04:12:20.785Z,11.02
2022-10-09T04:15:51.293Z,10.20
2022-10-09T04:19:14.968Z,8.90
2022-10-09T04:22:37.102Z,5.85
2022-10-09T04:26:01.070Z,6.85
2022-10-09T04:29:23.014Z,7.18
2022-10-09T04:32:44.908Z,8.88
2022-10-09T04:36:09.029Z,4.45
2022-10-09T04:39:31.140Z,10.68
2022-10-09T04:42:52.932Z,8.18
2022-10-09T04:46:15.912Z,9.27
2022-10-09T04:49:37.826Z,15.05
2022-10-09T04:53:01.053Z,10.88
2022-10-09T04:56:24.725Z,10.18
2022-10-09T04:59:46.460Z,14.30
2022-10-09T05:03:08.329Z,11.15
2022-10-09T05:06:30.201Z,19.65
2022-10-09T05:09:53.391Z,34.60
2022-10-09T05:13:15.403Z,36.00
2022-10-09T05:16:54.989Z,26.10
2022-10-09T05:20:20.096Z,22.40
2022-10-09T05:23:42.230Z,17.13
2022-10-09T05:27:06.159Z,16.35
2022-10-09T05:30:28.057Z,18.05
2022-10-09T05:33:50.005Z,20.83
2022-10-09T05:37:11.864Z,21.50
2022-10-09T05:40:33.523Z,12.45
2022-10-09T05:44:01.351Z,9.73
2022-10-09T05:47:23.415Z,12.52
2022-10-09T05:50:45.589Z,12.57
2022-10-09T05:54:08.030Z,16.70
2022-10-09T05:57:29.649Z,10.43
2022-10-09T06:00:52.988Z,11.32
2022-10-09T06:04:16.723Z,11.40
2022-10-09T06:07:39.244Z,17.85
2022-10-09T06:11:09.285Z,16.15
2022-10-09T06:14:31.420Z,12.23
2022-10-09T06:17:54.445Z,11.60
2022-10-09T06:21:17.680Z,10.48
2022-10-09T06:24:39.993Z,12.65
2022-10-09T06:28:02.118Z,9.60
2022-10-09T06:31:27.169Z,12.40
2022-10-09T06:34:50.677Z,18.73
2022-10-09T06:38:12.841Z,15.63
2022-10-09T06:41:35.012Z,14.35
2022-10-09T06:44:57.172Z,7.15
2022-10-09T06:48:18.881Z,17.42
2022-10-09T06:51:42.043Z,11.23
2022-10-09T06:55:04.099Z,17.08
2022-10-09T06:58:36.088Z,11.68
2022-10-09T07:01:58.126Z,12.52
2022-10-09T07:05:20.235Z,10.80
2022-10-09T07:08:45.492Z,11.48
2022-10-09T07:12:07.244Z,40.00
2022-10-09T07:15:29.258Z,40.22
2022-10-09T07:18:51.193Z,124.40
2022-10-09T07:22:13.183Z,28.67
2022-10-09T07:25:40.211Z,86.90
2022-10-09T07:29:02.761Z,17.88
2022-10-09T07:32:24.958Z,18.02
2022-10-09T07:35:54.766Z,5.55
2022-10-09T07:39:19.303Z,12.73
2022-10-09T07:42:42.963Z,10.32
2022-10-09T07:46:06.509Z,13.70
2022-10-09T07:49:28.336Z,8.50
2022-10-09T07:52:51.101Z,8.65
2022-10-09T07:56:15.963Z,5.75
2022-10-09T07:59:39.312Z,9.90
2022-10-09T08:03:01.267Z,5.43
2022-10-09T08:06:23.628Z,10.18
2022-10-09T08:09:45.641Z,7.25
2022-10-09T08:13:07.870Z,9.75
2022-10-09T08:16:33.711Z,10.23
2022-10-09T08:19:55.515Z,7.13
2022-10-09T08:23:17.633Z,22.42
2022-10-09T08:26:39.852Z,14.63
2022-10-09T08:30:02.314Z,14.40
2022-10-09T08:33:26.116Z,13.13
2022-10-09T08:36:48.432Z,14.85
2022-10-09T08:40:17.346Z,11.65
2022-10-09T08:43:44.255Z,9.48
2022-10-09T08:47:10.399Z,12.98
2022-10-09T08:50:38.135Z,17.20
2022-10-09T08:54:05.263Z,15.52
2022-10-09T08:57:30.926Z,17.25
2022-10-09T09:00:56.395Z,11.25
2022-10-09T09:04:52.370Z,9.48
2022-10-09T09:08:32.645Z,7.43
2022-10-09T09:12:01.977Z,7.20
2022-10-09T09:19:11.026Z,6.47
2022-10-09T09:22:33.953Z,8.80
2022-10-09T09:25:59.757Z,9.60
2022-10-09T09:29:24.587Z,7.82
2022-10-09T09:32:55.813Z,5.75
2022-10-09T09:36:23.689Z,7.90
2022-10-09T09:43:29.307Z,7.07
2022-10-09T09:46:51.754Z,13.35
2022-10-09T09:50:34.915Z,15.63
2022-10-09T09:53:58.007Z,19.80
2022-10-09T09:57:34.366Z,15.88
2022-10-09T10:01:01.173Z,16.48
2022-10-09T10:04:28.246Z,7.60
2022-10-09T10:07:51.747Z,16.17
2022-10-09T10:11:19.606Z,13.90
2022-10-09T10:14:50.973Z,46.88
2022-10-09T10:18:17.865Z,108.25
2022-10-09T10:21:48.581Z,8.35
2022-10-09T10:25:18.814Z,5.45
2022-10-09T10:28:50.679Z,7.35
2022-10-09T10:32:17.519Z,86.03
2022-10-09T10:35:43.058Z,31.40
2022-10-09T10:39:13.383Z,16.40
2022-10-09T10:42:43.718Z,11.68
2022-10-09T10:46:16.345Z,6.70
2022-10-09T10:49:38.406Z,11.30
2022-10-09T10:53:12.597Z,11.57
2022-10-09T10:56:39.368Z,7.88
2022-10-09T11:00:06.597Z,5.28
2022-10-09T11:03:55.728Z,1.00
2022-10-09T11:07:26.382Z,1.60
2022-10-09T11:10:58.351Z,2.95
2022-10-09T11:14:34.332Z,2.65
2022-10-09T11:18:04.008Z,3.78
2022-10-09T11:21:44.985Z,6.45
2022-10-09T11:25:22.837Z,3.60
2022-10-09T11:28:51.619Z,2.90
2022-10-09T11:32:20.003Z,1.25
2022-10-09T11:35:46.315Z,1.17
2022-10-09T11:39:15.277Z,1.65
2022-10-09T11:42:37.583Z,3.22
2022-10-09T11:46:07.453Z,2.45
2022-10-09T11:49:39.161Z,6.75
2022-10-09T11:53:07.910Z,7.10
2022-10-09T11:56:32.185Z,4.47
2022-10-09T12:00:06.350Z,2.00
2022-10-09T12:03:33.664Z,85.40
2022-10-09T12:06:57.945Z,3.85
2022-10-09T12:10:34.643Z,2.92
2022-10-09T12:13:58.947Z,3.03
2022-10-09T12:17:35.646Z,7.28
2022-10-09T12:21:02.208Z,2.05
2022-10-09T12:24:27.284Z,2.13
2022-10-09T12:27:53.792Z,3.55
2022-10-09T12:31:22.101Z,2.13
2022-10-09T12:34:47.791Z,2.00
2022-10-09T12:38:18.928Z,1.00
2022-10-09T12:41:42.666Z,6.38
2022-10-09T12:45:04.655Z,3.88
2022-10-09T12:48:28.850Z,6.18
2022-10-09T12:51:56.293Z,5.30
2022-10-09T12:55:27.627Z,3.53
2022-10-09T12:58:49.692Z,1.92
2022-10-09T13:02:15.943Z,2.15
2022-10-09T13:05:38.832Z,9.95
2022-10-09T13:09:03.585Z,1.50
2022-10-09T13:12:28.988Z,0.70
2022-10-09T13:16:01.097Z,0.30
2022-10-09T13:19:26.492Z,0.10
2022-10-09T13:22:55.397Z,1.52
2022-10-09T13:26:23.383Z,0.47
2022-10-09T13:29:47.033Z,1.00
2022-10-09T13:33:15.403Z,1.00
2022-10-09T13:36:37.272Z,3.77
2022-10-09T13:40:00.737Z,2.90
2022-10-09T13:43:26.706Z,5.47
2022-10-09T13:46:50.068Z,36.83
2022-10-09T13:50:14.666Z,16.55
2022-10-09T13:53:36.447Z,20.70
2022-10-09T13:56:58.314Z,19.48
2022-10-09T14:00:20.157Z,21.88
2022-10-09T14:03:44.241Z,5.75
2022-10-09T14:07:06.787Z,11.23
2022-10-09T14:10:29.748Z,15.93
2022-10-09T14:13:55.471Z,23.58
2022-10-09T14:17:18.432Z,16.42
2022-10-09T14:20:42.620Z,8.15
2022-10-09T14:24:06.092Z,8.73
2022-10-09T14:27:28.997Z,24.52
2022-10-09T14:30:52.942Z,19.67
2022-10-09T14:34:16.098Z,18.65
2022-10-09T14:37:42.169Z,36.15
2022-10-09T15:05:11.791Z,68.35
2022-10-09T15:08:37.207Z,57.33
2022-10-09T15:11:59.309Z,98.72
2022-10-09T15:15:21.220Z,138.10
2022-10-09T15:18:44.420Z,149.15
2022-10-09T15:22:06.233Z,87.05
2022-10-09T15:25:31.865Z,105.57
2022-10-09T15:28:53.729Z,69.40
2022-10-09T15:32:15.710Z,61.47
2022-10-09T15:35:37.680Z,53.42
2022-10-09T15:39:02.830Z,34.10
2022-10-09T15:42:25.967Z,27.33
2022-10-09T15:45:49.157Z,17.83
2022-10-09T15:49:10.789Z,21.92
2022-10-09T15:52:32.533Z,14.38
2022-10-09T15:55:54.847Z,10.73
2022-10-09T15:59:18.158Z,20.30
2022-10-09T16:02:39.819Z,19.30
2022-10-09T16:06:02.986Z,17.17
2022-10-09T16:09:25.091Z,20.30
2022-10-09T16:12:47.014Z,19.83
2022-10-09T16:16:14.001Z,19.42
2022-10-09T16:19:36.051Z,16.77
2022-10-09T16:22:58.099Z,22.25
2022-10-09T16:26:23.439Z,21.25
2022-10-09T16:29:45.260Z,21.23
2022-10-09T16:33:12.435Z,19.25
2022-10-09T16:36:35.129Z,19.25
2022-10-09T16:39:56.970Z,26.38
2022-10-09T16:43:19.837Z,26.48
2022-10-09T16:46:41.766Z,23.42
2022-10-09T16:50:06.152Z,21.00
2022-10-09T16:53:27.621Z,23.02
2022-10-09T16:56:49.476Z,18.38
2022-10-09T17:00:15.237Z,26.52
2022-10-09T17:03:41.472Z,21.70
2022-10-09T17:07:05.636Z,24.85
2022-10-09T17:10:27.619Z,27.25
2022-10-09T17:13:49.566Z,32.50
2022-10-09T17:17:13.282Z,32.72
2022-10-09T17:20:37.508Z,30.88
2022-10-09T17:24:02.892Z,40.50
2022-10-09T17:27:25.108Z,39.97
2022-10-09T17:30:47.097Z,34.80
2022-10-09T17:34:09.697Z,36.00
2022-10-09T17:37:31.826Z,41.65
2022-10-09T17:40:55.168Z,45.42
2022-10-09T17:44:17.445Z,46.97
2022-10-09T17:47:39.196Z,83.28
2022-10-09T17:51:02.039Z,69.93
2022-10-09T17:54:24.073Z,52.53
2022-10-09T17:57:47.464Z,48.67
2022-10-09T18:01:10.729Z,50.08
2022-10-09T18:04:32.708Z,48.05
2022-10-09T18:07:54.943Z,47.55
2022-10-09T18:11:17.987Z,62.78
2022-10-09T18:14:40.926Z,44.53
2022-10-09T18:18:02.976Z,49.83
2022-10-09T18:21:24.842Z,52.50
2022-10-09T18:24:46.872Z,48.05
2022-10-09T18:28:09.298Z,42.60
2022-10-09T18:31:32.896Z,38.67
2022-10-09T18:34:55.136Z,34.17
2022-10-09T18:38:17.101Z,32.10
2022-10-09T18:41:39.499Z,27.00
2022-10-09T18:45:01.480Z,22.55
2022-10-09T18:48:25.275Z,17.98
2022-10-09T18:51:48.752Z,15.75
2022-10-09T18:55:13.898Z,11.25
2022-10-09T18:58:36.645Z,12.40
2022-10-09T19:01:58.449Z,14.15
2022-10-09T19:05:21.840Z,10.50
2022-10-09T19:08:43.850Z,13.05
2022-10-09T19:12:05.649Z,16.13
2022-10-09T19:15:27.604Z,15.57
2022-10-09T19:18:53.258Z,15.70
2022-10-09T19:22:21.410Z,16.92
2022-10-09T19:25:51.087Z,17.23
2022-10-09T19:29:13.140Z,19.15
2022-10-09T19:32:34.889Z,20.08
2022-10-09T19:35:57.616Z,13.95
2022-10-09T19:39:22.238Z,15.25
2022-10-09T19:42:43.993Z,18.88
2022-10-09T19:46:08.002Z,14.20
2022-10-09T19:49:32.222Z,18.02
2022-10-09T19:52:54.302Z,20.17
2022-10-09T19:56:19.600Z,19.08
2022-10-09T19:59:41.374Z,11.63
2022-10-09T20:03:03.123Z,13.40
2022-10-09T20:06:24.957Z,11.73
2022-10-09T20:09:46.926Z,9.90
2022-10-09T20:13:10.464Z,11.30
2022-10-09T20:16:33.763Z,9.20
2022-10-09T20:19:55.959Z,13.00
2022-10-09T20:23:17.983Z,16.25
2022-10-09T20:26:43.111Z,9.35
2022-10-09T20:30:08.144Z,17.42
2022-10-09T20:33:30.372Z,12.23
2022-10-09T20:36:52.329Z,14.85
2022-10-09T20:40:14.182Z,9.98
2022-10-09T20:43:36.695Z,14.82
2022-10-09T20:46:59.885Z,9.52
2022-10-09T20:50:21.387Z,9.93
2022-10-09T20:53:43.291Z,6.25
2022-10-09T20:57:05.381Z,9.00
2022-10-09T21:00:27.211Z,3.53
2022-10-09T21:03:50.677Z,4.38
2022-10-09T21:07:12.264Z,3.97
2022-10-09T21:10:34.116Z,5.63
2022-10-09T21:13:56.033Z,7.13
2022-10-09T21:17:17.892Z,6.05
2022-10-09T21:20:42.908Z,7.80
2022-10-09T21:24:05.694Z,8.35
2022-10-09T21:27:27.471Z,5.65
2022-10-09T21:30:49.441Z,6.28
2022-10-09T21:34:11.196Z,5.00
2022-10-09T21:37:37.539Z,5.97
2022-10-09T21:40:59.405Z,4.70
2022-10-09T21:44:21.271Z,2.47
2022-10-09T21:47:43.040Z,3.00
2022-10-09T21:51:05.170Z,2.92
2022-10-09T21:54:28.884Z,1.95
2022-10-09T21:57:50.754Z,3.38
2022-10-09T22:01:12.876Z,1.30
2022-10-09T22:04:34.780Z,2.15
2022-10-09T22:07:56.571Z,0.98
2022-10-09T22:11:20.107Z,0.70
2022-10-09T22:14:42.146Z,1.77
2022-10-09T22:18:03.932Z,0.90
2022-10-09T22:21:25.763Z,2.95
2022-10-09T22:24:47.618Z,4.47
2022-10-09T22:28:11.293Z,7.13
2022-10-09T22:31:33.017Z,4.57
2022-10-09T22:34:55.174Z,3.28
2022-10-09T22:38:17.424Z,2.25
2022-10-09T22:41:39.262Z,1.08
2022-10-09T22:45:02.534Z,5.45
2022-10-09T22:48:24.575Z,2.90
2022-10-09T22:51:46.887Z,3.58
2022-10-09T22:55:09.524Z,1.17
2022-10-09T22:58:31.019Z,3.00
2022-10-09T23:01:57.197Z,2.08
2022-10-09T23:05:19.175Z,3.60
2022-10-09T23:08:42.916Z,2.03
2022-10-09T23:12:05.157Z,2.00
2022-10-09T23:15:27.236Z,2.10
2022-10-09T23:18:51.054Z,1.83
2022-10-09T23:22:12.748Z,2.75
2022-10-09T23:25:34.497Z,2.28
2022-10-09T23:28:58.659Z,2.47
2022-10-09T23:32:20.674Z,3.53
2022-10-09T23:35:44.884Z,2.85
2022-10-09T23:39:08.028Z,5.28
2022-10-09T23:42:30.073Z,2.92
2022-10-09T23:45:51.953Z,2.08
2022-10-09T23:49:13.995Z,1.20
2022-10-09T23:52:37.387Z,3.08
2022-10-09T23:55:59.697Z,1.50
2022-10-09T23:59:21.608Z,3.63
